This is the latest recevied weather packets stored in our database for station/object WX1N. If no packets are shown the sender has not sent any weather packets the latest 10 day(s).
| Time | Temp. | Humidity | Pressure | Rain* | Wind** | Luminosity | Snow |
|---|---|---|---|---|---|---|---|
| 1777436702 | 6.67° C | 57% | 1017.8 hPa | 0 mm | - | - | - |
| 1777435803 | 8.33° C | 52% | 1017.6 hPa | 0 mm | - | - | - |
| 1777435503 | 7.78° C | 51% | 1017.5 hPa | 0 mm | - | - | - |
| 1777433103 | 8.89° C | 44% | 1017.8 hPa | 0 mm | - | - | - |
| 1777432503 | 9.44° C | 40% | 1017.7 hPa | 0 mm | - | - | - |
| 1777430103 | 10° C | 42% | 1017.7 hPa | 0 mm | - | - | - |
| 1777429503 | 10.56° C | 47% | 1017.7 hPa | 0 mm | - | - | - |
| 1777422603 | 13.33° C | 43% | 1016.7 hPa | 0 mm | - | - | - |
| 1777414503 | 17.78° C | 44% | 1015.9 hPa | 0 mm | - | - | - |
| 1777410003 | 19.44° C | 44% | 1016.2 hPa | 0 mm | - | - | - |
| 1777409403 | 20° C | 44% | 1016.4 hPa | 0 mm | - | - | - |
| 1777408503 | 20° C | 43% | 1016.5 hPa | 0 mm | - | - | - |
| 1777407903 | 20° C | 44% | 1016.6 hPa | 0 mm | - | - | - |
| 1777407003 | 20° C | 39% | 1016.6 hPa | 0 mm | - | - | - |
| 1777406403 | 20.56° C | 40% | 1016.8 hPa | 0 mm | - | - | - |
| 1777406103 | 20.56° C | 44% | 1016.8 hPa | 0 mm | - | - | - |
| 1777405803 | 20.56° C | 43% | 1016.8 hPa | 0 mm | - | - | - |
| 1777404903 | 20.56° C | 39% | 1017.1 hPa | 0 mm | - | - | - |
| 1777404303 | 21.67° C | 37% | 1017.3 hPa | 0 mm | - | - | - |
| 1777403703 | 22.22° C | 39% | 1017.3 hPa | 0 mm | - | - | - |
| 1777401303 | 21.11° C | 41% | 1017.5 hPa | 0 mm | - | - | - |
| 1777400703 | 21.11° C | 38% | 1017.6 hPa | 0 mm | - | - | - |
| 1777398603 | 22.22° C | 34% | 1018 hPa | 0 mm | - | - | - |
| 1777397703 | 22.78° C | 37% | 1018.1 hPa | 0 mm | - | - | - |
| 1777397103 | 22.22° C | 39% | 1018.1 hPa | 0 mm | - | - | - |
* Rain latest hour (hover to see other rain measurements)
** Current wind speed in m/s (hover to see current wind gust speed)